Timeline UpdatesTrip UpdatesNews PostsPvt PostsTravel TipsAdmin PostsConv PostsFollowed PostsChat RequestsBlog PostsPNR Posts

Disclaimer
Search
 
 
Tue Sep 30, 2014 11:28:07 ISTHomeTrainsΣChainsAtlasPNRForumGalleryNewsFAQTripsMembersLoginFeedback
No Recent News for this Train
Other Trains in the News **new
Latest...
Will be diverted via Malkhedi-Agasod chord line avoiding Bina station from 26th march 2014
Wed Jan 29, 2014 (09:07PM)
⇐ Return Journey: Train# 18507

18508/Hirakud (Hirakund) Express

Time-Table HAS CHANGED.
Sep 01 (11:55PM)
Change Departure Station:
Change Arrival Station:
Post a Train Travel TipPost a Train Travel Tip **new
Post a Comment/Question/Picture/VideoPost a Comment/Question/Picture/Video
Pantry/Catering
✓ Pantry Car Avbl
✓ Catering Avbl
Loco/Rake Reversals
TLHR/Talcher; SBP/Sambalpur Junction (3); JSG/Jharsuguda Junction (5);
RSA - Rake Sharing
Rake/Coach Composition
Amritsar to Jharsuguda & Sambhalpur to Talcher ; LOCO- SLR- GEN-GEN- A1-B1-B2-S1- S2- PC- S3- S4-S5- S6- S7- S8- S9- S10-GEN - GEN - GEN - SLR- HCPV; Jharsuguda to Sambhalpur & Talcher to Visakhapattanam; LOCO-HCPV-SLR-GEN-GEN-GEN-S10-S9-S8-S7-S6-S5-S4-S3-PC-S2-S1-B2-B1-A1-GEN-GEN-SLR;
Loco
ASR-JSG -WAP-1/4 GZB JSG-VSKP -WDM-3A Blog Entry #541879
News    PNR    Forum    Time-Table    Availability    Fare Chart    Map    Arr/Dep History    Trips    Gallery    ΣChains    X/O    Timeline    
Travel Time: 48h 5m    46 halts    Distance: 2575 km    Avg Speed: 53 km/hr
Type: Mail/Express
Zone: ECoR/East Coast
Departs @ 23:45 (Avg 9m late)
Platform# 2
S  W  S
Amritsar Junction/ASR 
Arrives @ 23:50 +2 nights (Avg 24m late)
Platform# 8
 MT  F 
Visakhapatnam Junction/VSKP 

46 halts. 353 intermediate Stations between Amritsar Junction and Visakhapatnam Junction

Show ALL intermediate Stations  Show Old Time-Table

#CodeStation NameX/OArrivesAvgDepartsAvgHaltPFDay#KmSpeedElevZoneAddress
1ASRAmritsar Junction (5)»  -23:45+9210.092233mNRAmritsar 143002, Punjab
2BEASBeas Junction (2)  00:13+2100:15+212m2243.077238mNRBeas, Punjab
3JUCJalandhar City Junction (5)  00:45 00:43+1900:55 00:50+1710 7m2279.149239mNRJalandhar 144001, Punjab
4PGWPhagwara Junction (3)  01:21 01:16+1501:23 01:20+142 4m12100.353245mNRPhagwara, Punjab
5LDHLudhiana Junction (7)X  02:05 02:00+1602:15 02:10+2210m12135.957246mNRLudhiana 141001, Punjab
6UMBAmbala Cantt. Junction (7)X  04:10+404:20+410m22249.677278mNRAmbala 133001, Haryana
7PNPPanipat Junction (5)  05:45+2005:47+202m12359.144235mNRPanipat, Haryana
8NDLSNew Delhi (16)X  07:50+3408:10+3220m82448.822215mNRNew Delhi, Delhi NCT
9NZMDelhi Hazrat Nizamuddin (7)X  08:30+1508:50 08:45+1420 15m32456.175209mNRNew Delhi 110013, Delhi NCT
10MTJMathura Junction (10)X  10:32+3310:35+333m12590.146179mNCRMathura, Uttar Pradesh
11AGCAgra Cantt. (6)  11:45+2011:50+215m12643.883174mNCRAgra, Uttar Pradesh
12GWLGwalior Junction (4)X  13:15+4413:20+445m12761.862214mNCRGwalior, Madhya Pradesh
13JHSJhansi Junction (7)X  14:55+3915:03 15:05+448 10m32859.587259mNCRJhansi, Uttar Pradesh
14LARLalitpur (3)X  16:07+5516:09+552m22949.843373mNCRLalitpur, Uttar Pradesh
15MAKRMalkheri Junction (2)X  17:40 17:38+2717:42 17:40+302m--21013.061421mWCRGuna, Madhya Pradesh
16KYEKhurai (5)X  18:00 17:57+3018:02 17:59+312m--21030.269439mWCRKhurai, Madhya Pradesh
17SGOSaugor (2)X  18:50 18:45+3318:55 18:47+385 2m121083.068519mWCRMP 470001Madhya pradesh, Madhya Pradesh
18DMODamoh (2)  19:55+4819:57+482m--21160.155365mWCRDamoh, Madhya Pradesh
19KMZKatni Murwara  21:55+2522:05+3010m--21269.251385mWCRMP 483504 ?, Madhya Pradesh
20UMRUmaria (3)X  23:14+3723:16+382m--21328.060469mSECRUmaria, Madhya Pradesh
21SDLShahdolX  00:23+2900:28+315m--31395.366466mSECR, Madhya Pradesh
22APRAnuppur Junction (4)X  01:05+3201:10+365m--31436.257487mSECRAnuppur, Madhya Pradesh
23PNDPendra Road  02:04+4602:06+502m--31487.342620mSECRBilaspur district, Chhattisgarh
24BSPBilaspur Junction (8)X  04:30+2504:45+2915m131588.978271mSECRBilaspur, Chhattisgarh
25AKTAkaltara (4)X  05:06+3605:08+362m--31616.167284mSECRDist. Janjgir Champa, Chhattisgarh
26CPHChampa Junction (3)  05:31+3605:33+362m--31641.996264mSECRNational Highway 200 (07819-245767), Chhattisgarh
27SKTSakti (4)X  05:52+4105:54+402m--31672.371237mSECRJanjgir-Champa, Chhattisgarh
28KHSKharsia  06:06 06:07+4206:08+422 1m--31687.785 SECRNational Highway 200, Chhattisgarh
29RIGRaigarh (3)X  06:32+4606:37+455m--31721.693220mSECRRaigarh, Chhattisgarh
30BPHBelpahar  07:10+4907:12+492m--31772.767 SECRBelpahar, Odisha
31BRJNBrajrajnagarX  07:20+5907:22+592m--31781.616212mSECRBrajrajnagar, Odisha
32JSGJharsuguda Junction (5)08:05+2908:25+3120m--31793.371236mSERJharsuguda, Odisha
33SBPDSambalpur Road new halt!!  09:05-09:07-2m--31840.44161mECoRSambalpur, Odisha
34SBPSambalpur Junction (3)09:35 09:30+3609:55 09:50+3920m--31841.963159mECoRSambalpur, Odisha
35RAIRRairakholX  10:58+4911:00+542m--31913.093144mECoRSH 24, Odisha
36BONABoindaX  11:30+1:0911:32+1:102m--31959.525292mECoRState Highway 62, Odisha
37ANGLAngul (2)  13:05+2513:07+282m--31998.547120mECoRAngul District, Odisha
38TLHRTalcher13:30+3413:55+3725m--32016.66386mECoRSub-division Angul district, Odisha
39DNKLDhenkanal (2)X  14:40 14:45+4514:42 14:47+452m--32068.94759mECoRDhenkanal, Odisha
40BBSBhubaneswar (4)  16:05+5216:10+545m432130.63840mECoRBhubaneshwar, Odisha
41KURKhurda Road Junction (7)X  16:45 16:40+5017:00 16:55+5215m--32149.58925mECoRKhordha, Odisha
42BALUBalugaon (3)  17:49 17:43+5017:51 17:45+502m--32220.69111mECoR752030, Odisha
43CAPChatrapurX  18:27 18:21+1:0018:29 18:23+1:002m--32275.25836mECoRChatrapur, Odisha
44BAMBrahmapur (3)  18:50 18:45+5318:55 18:50+525m232296.64127mECoRBerhampur, Odisha
45PSAPalasa (3)X  20:40+2220:42+232m--32371.08631mECoRKasibugga, Andhra Pradesh
46CHESrikakulam Road (4)X  21:33+3221:35+322m--32443.97634mECoRsrikakulam road ph .no. 08942-287222, Andhra Pradesh
47VZMVizianagaram Junction (5)X  22:30+2722:35+275m--32513.54963mECoRVizianagaram, Andhra Pradesh
48VSKPVisakhapatnam Junction (8)•  23:50+24-832574.6-11mECoRVishakhapatnam 530001, Andhra Pradesh
Scroll to Top
Scroll to Bottom